sensor_id;sensor_type;location;lat;lon;timestamp;temperature;humidity
52509;DHT22;38420;53.150;6.370;2023-07-22T00:00:29;12.10;99.90
52509;DHT22;38420;53.150;6.370;2023-07-22T00:02:55;11.90;99.90
52509;DHT22;38420;53.150;6.370;2023-07-22T00:05:21;13.70;99.90
52509;DHT22;38420;53.150;6.370;2023-07-22T00:07:49;12.00;99.90
52509;DHT22;38420;53.150;6.370;2023-07-22T00:10:15;12.10;99.90
52509;DHT22;38420;53.150;6.370;2023-07-22T00:12:41;12.10;99.90
52509;DHT22;38420;53.150;6.370;2023-07-22T00:15:07;13.00;99.90
52509;DHT22;38420;53.150;6.370;2023-07-22T00:17:33;13.90;99.90
52509;DHT22;38420;53.150;6.370;2023-07-22T00:19:58;11.70;99.90
52509;DHT22;38420;53.150;6.370;2023-07-22T00:22:25;11.80;99.90
52509;DHT22;38420;53.150;6.370;2023-07-22T00:24:52;13.80;99.90
52509;DHT22;38420;53.150;6.370;2023-07-22T00:27:18;13.20;99.90
52509;DHT22;38420;53.150;6.370;2023-07-22T00:29:43;13.30;99.90
52509;DHT22;38420;53.150;6.370;2023-07-22T00:32:09;12.30;99.90
52509;DHT22;38420;53.150;6.370;2023-07-22T00:34:35;11.90;99.90
52509;DHT22;38420;53.150;6.370;2023-07-22T00:37:02;13.50;99.90
52509;DHT22;38420;53.150;6.370;2023-07-22T00:39:28;12.80;99.90
52509;DHT22;38420;53.150;6.370;2023-07-22T00:41:53;12.90;99.90
52509;DHT22;38420;53.150;6.370;2023-07-22T00:44:19;13.50;99.90
52509;DHT22;38420;53.150;6.370;2023-07-22T00:46:44;13.20;99.90
52509;DHT22;38420;53.150;6.370;2023-07-22T00:49:11;13.20;99.90
52509;DHT22;38420;53.150;6.370;2023-07-22T00:51:38;13.30;99.90
52509;DHT22;38420;53.150;6.370;2023-07-22T00:54:04;11.60;99.90
52509;DHT22;38420;53.150;6.370;2023-07-22T00:56:33;11.60;99.90
52509;DHT22;38420;53.150;6.370;2023-07-22T00:59:00;12.70;99.90
52509;DHT22;38420;53.150;6.370;2023-07-22T01:01:26;12.60;99.90
52509;DHT22;38420;53.150;6.370;2023-07-22T01:03:51;13.20;99.90
52509;DHT22;38420;53.150;6.370;2023-07-22T01:06:17;12.80;99.90
52509;DHT22;38420;53.150;6.370;2023-07-22T01:08:43;11.60;99.90
52509;DHT22;38420;53.150;6.370;2023-07-22T01:11:09;11.50;99.90
52509;DHT22;38420;53.150;6.370;2023-07-22T01:13:34;12.90;99.90
52509;DHT22;38420;53.150;6.370;2023-07-22T01:16:00;11.50;99.90
52509;DHT22;38420;53.150;6.370;2023-07-22T01:18:26;11.70;99.90
52509;DHT22;38420;53.150;6.370;2023-07-22T01:20:51;13.20;99.90
52509;DHT22;38420;53.150;6.370;2023-07-22T01:23:17;11.30;99.90
52509;DHT22;38420;53.150;6.370;2023-07-22T01:25:44;11.80;99.90
52509;DHT22;38420;53.150;6.370;2023-07-22T01:28:10;11.30;99.90
52509;DHT22;38420;53.150;6.370;2023-07-22T01:30:38;12.10;99.90
52509;DHT22;38420;53.150;6.370;2023-07-22T01:33:05;12.00;99.90
52509;DHT22;38420;53.150;6.370;2023-07-22T01:35:31;12.70;99.90
52509;DHT22;38420;53.150;6.370;2023-07-22T01:37:56;11.70;99.90
52509;DHT22;38420;53.150;6.370;2023-07-22T01:40:24;13.20;99.90
52509;DHT22;38420;53.150;6.370;2023-07-22T01:42:50;13.20;99.90
52509;DHT22;38420;53.150;6.370;2023-07-22T01:45:15;11.90;99.90
52509;DHT22;38420;53.150;6.370;2023-07-22T01:47:41;13.10;99.90
52509;DHT22;38420;53.150;6.370;2023-07-22T01:50:07;12.10;99.90
52509;DHT22;38420;53.150;6.370;2023-07-22T01:52:33;11.50;99.90
52509;DHT22;38420;53.150;6.370;2023-07-22T01:54:58;12.80;99.90
52509;DHT22;38420;53.150;6.370;2023-07-22T01:57:24;12.90;99.90
52509;DHT22;38420;53.150;6.370;2023-07-22T01:59:50;13.10;99.90
52509;DHT22;38420;53.150;6.370;2023-07-22T02:02:15;11.90;99.90
52509;DHT22;38420;53.150;6.370;2023-07-22T02:04:41;11.30;99.90
52509;DHT22;38420;53.150;6.370;2023-07-22T02:07:07;12.60;99.90
52509;DHT22;38420;53.150;6.370;2023-07-22T02:09:32;12.00;99.90
52509;DHT22;38420;53.150;6.370;2023-07-22T02:11:58;12.10;99.90
52509;DHT22;38420;53.150;6.370;2023-07-22T02:14:24;12.90;99.90
52509;DHT22;38420;53.150;6.370;2023-07-22T02:16:50;12.40;99.90
52509;DHT22;38420;53.150;6.370;2023-07-22T02:19:15;12.70;99.90
52509;DHT22;38420;53.150;6.370;2023-07-22T02:21:41;11.50;99.90
52509;DHT22;38420;53.150;6.370;2023-07-22T02:24:09;12.60;99.90
52509;DHT22;38420;53.150;6.370;2023-07-22T02:26:34;11.20;99.90
52509;DHT22;38420;53.150;6.370;2023-07-22T02:29:00;12.70;99.90
52509;DHT22;38420;53.150;6.370;2023-07-22T02:31:25;11.30;99.90
52509;DHT22;38420;53.150;6.370;2023-07-22T02:33:51;11.40;99.90
52509;DHT22;38420;53.150;6.370;2023-07-22T02:36:17;12.80;99.90
52509;DHT22;38420;53.150;6.370;2023-07-22T02:38:43;10.90;99.90
52509;DHT22;38420;53.150;6.370;2023-07-22T02:41:08;11.30;99.90
52509;DHT22;38420;53.150;6.370;2023-07-22T02:43:34;12.80;99.90
52509;DHT22;38420;53.150;6.370;2023-07-22T02:46:04;11.70;99.90
52509;DHT22;38420;53.150;6.370;2023-07-22T02:48:33;12.80;99.90
52509;DHT22;38420;53.150;6.370;2023-07-22T02:51:06;12.70;99.90
52509;DHT22;38420;53.150;6.370;2023-07-22T02:53:33;12.60;99.90
52509;DHT22;38420;53.150;6.370;2023-07-22T02:55:59;11.00;99.90
52509;DHT22;38420;53.150;6.370;2023-07-22T02:58:25;10.90;99.90
52509;DHT22;38420;53.150;6.370;2023-07-22T03:00:51;12.30;99.90
52509;DHT22;38420;53.150;6.370;2023-07-22T03:03:17;10.60;99.90
52509;DHT22;38420;53.150;6.370;2023-07-22T03:05:45;10.70;99.90
52509;DHT22;38420;53.150;6.370;2023-07-22T03:08:10;11.70;99.90
52509;DHT22;38420;53.150;6.370;2023-07-22T03:10:36;11.40;99.90
52509;DHT22;38420;53.150;6.370;2023-07-22T03:13:02;10.60;99.90
52509;DHT22;38420;53.150;6.370;2023-07-22T03:15:28;10.80;99.90
52509;DHT22;38420;53.150;6.370;2023-07-22T03:17:54;10.70;99.90
52509;DHT22;38420;53.150;6.370;2023-07-22T03:20:27;12.00;99.90
52509;DHT22;38420;53.150;6.370;2023-07-22T03:22:52;12.60;99.90
52509;DHT22;38420;53.150;6.370;2023-07-22T03:25:19;10.50;99.90
52509;DHT22;38420;53.150;6.370;2023-07-22T03:27:45;10.70;99.90
52509;DHT22;38420;53.150;6.370;2023-07-22T03:30:16;12.60;99.90
52509;DHT22;38420;53.150;6.370;2023-07-22T03:32:46;12.50;99.90
52509;DHT22;38420;53.150;6.370;2023-07-22T03:35:13;10.60;99.90
52509;DHT22;38420;53.150;6.370;2023-07-22T03:37:40;12.30;99.90
52509;DHT22;38420;53.150;6.370;2023-07-22T03:40:06;12.00;99.90
52509;DHT22;38420;53.150;6.370;2023-07-22T03:42:51;11.00;99.90
52509;DHT22;38420;53.150;6.370;2023-07-22T03:45:21;12.60;99.90
52509;DHT22;38420;53.150;6.370;2023-07-22T03:47:51;11.00;99.90
52509;DHT22;38420;53.150;6.370;2023-07-22T03:50:17;10.50;99.90
52509;DHT22;38420;53.150;6.370;2023-07-22T03:52:42;10.90;99.90
52509;DHT22;38420;53.150;6.370;2023-07-22T03:55:08;10.50;99.90
52509;DHT22;38420;53.150;6.370;2023-07-22T03:57:34;12.60;99.90
52509;DHT22;38420;53.150;6.370;2023-07-22T04:00:00;12.00;99.90
52509;DHT22;38420;53.150;6.370;2023-07-22T04:02:26;11.30;99.90
52509;DHT22;38420;53.150;6.370;2023-07-22T04:04:55;12.00;99.90
52509;DHT22;38420;53.150;6.370;2023-07-22T04:07:21;12.80;99.90
52509;DHT22;38420;53.150;6.370;2023-07-22T04:09:47;12.90;99.90
52509;DHT22;38420;53.150;6.370;2023-07-22T04:12:14;12.30;99.90
52509;DHT22;38420;53.150;6.370;2023-07-22T04:14:40;10.90;99.90
52509;DHT22;38420;53.150;6.370;2023-07-22T04:17:06;12.70;99.90
52509;DHT22;38420;53.150;6.370;2023-07-22T04:19:32;11.20;99.90
52509;DHT22;38420;53.150;6.370;2023-07-22T04:21:58;11.30;99.90
52509;DHT22;38420;53.150;6.370;2023-07-22T04:24:24;12.90;99.90
52509;DHT22;38420;53.150;6.370;2023-07-22T04:26:50;12.90;99.90
52509;DHT22;38420;53.150;6.370;2023-07-22T04:29:16;12.90;99.90
52509;DHT22;38420;53.150;6.370;2023-07-22T04:31:42;12.00;99.90
52509;DHT22;38420;53.150;6.370;2023-07-22T04:34:08;11.20;99.90
52509;DHT22;38420;53.150;6.370;2023-07-22T04:36:34;12.50;99.90
52509;DHT22;38420;53.150;6.370;2023-07-22T04:39:00;11.30;99.90
52509;DHT22;38420;53.150;6.370;2023-07-22T04:41:26;12.40;99.90
52509;DHT22;38420;53.150;6.370;2023-07-22T04:43:51;13.40;99.90
52509;DHT22;38420;53.150;6.370;2023-07-22T04:46:17;11.70;99.90
52509;DHT22;38420;53.150;6.370;2023-07-22T04:48:43;13.50;99.90
52509;DHT22;38420;53.150;6.370;2023-07-22T04:51:08;12.50;99.90
52509;DHT22;38420;53.150;6.370;2023-07-22T04:53:34;13.00;99.90
52509;DHT22;38420;53.150;6.370;2023-07-22T04:56:00;11.60;99.90
52509;DHT22;38420;53.150;6.370;2023-07-22T04:58:25;13.00;99.90
52509;DHT22;38420;53.150;6.370;2023-07-22T05:00:51;12.50;99.90
52509;DHT22;38420;53.150;6.370;2023-07-22T05:03:17;13.50;99.90
52509;DHT22;38420;53.150;6.370;2023-07-22T05:05:44;11.90;99.90
52509;DHT22;38420;53.150;6.370;2023-07-22T05:08:10;13.00;99.90
52509;DHT22;38420;53.150;6.370;2023-07-22T05:10:37;12.40;99.90
52509;DHT22;38420;53.150;6.370;2023-07-22T05:13:03;11.70;99.90
52509;DHT22;38420;53.150;6.370;2023-07-22T05:15:29;13.20;99.90
52509;DHT22;38420;53.150;6.370;2023-07-22T05:17:54;12.60;99.90
52509;DHT22;38420;53.150;6.370;2023-07-22T05:20:20;11.60;99.90
52509;DHT22;38420;53.150;6.370;2023-07-22T05:22:46;13.80;99.90
52509;DHT22;38420;53.150;6.370;2023-07-22T05:25:12;12.30;99.90
52509;DHT22;38420;53.150;6.370;2023-07-22T05:27:37;11.80;99.90
52509;DHT22;38420;53.150;6.370;2023-07-22T05:30:03;14.00;99.90
52509;DHT22;38420;53.150;6.370;2023-07-22T05:32:29;13.90;99.90
52509;DHT22;38420;53.150;6.370;2023-07-22T05:34:55;12.00;99.90
52509;DHT22;38420;53.150;6.370;2023-07-22T05:37:22;12.30;99.90
52509;DHT22;38420;53.150;6.370;2023-07-22T05:39:48;12.40;99.90
52509;DHT22;38420;53.150;6.370;2023-07-22T05:42:14;12.10;99.90
52509;DHT22;38420;53.150;6.370;2023-07-22T05:44:39;13.50;99.90
52509;DHT22;38420;53.150;6.370;2023-07-22T05:47:05;12.40;99.90
52509;DHT22;38420;53.150;6.370;2023-07-22T05:49:31;14.40;99.90
52509;DHT22;38420;53.150;6.370;2023-07-22T05:51:56;12.90;99.90
52509;DHT22;38420;53.150;6.370;2023-07-22T05:54:22;14.50;99.90
52509;DHT22;38420;53.150;6.370;2023-07-22T05:56:48;13.50;99.90
52509;DHT22;38420;53.150;6.370;2023-07-22T05:59:13;13.60;99.90
52509;DHT22;38420;53.150;6.370;2023-07-22T06:01:39;14.70;99.90
52509;DHT22;38420;53.150;6.370;2023-07-22T06:04:06;14.00;99.90
52509;DHT22;38420;53.150;6.370;2023-07-22T06:06:31;14.20;99.90
52509;DHT22;38420;53.150;6.370;2023-07-22T06:08:57;12.80;99.90
52509;DHT22;38420;53.150;6.370;2023-07-22T06:11:23;12.90;99.90
52509;DHT22;38420;53.150;6.370;2023-07-22T06:13:49;14.70;99.90
52509;DHT22;38420;53.150;6.370;2023-07-22T06:16:14;13.90;99.90
52509;DHT22;38420;53.150;6.370;2023-07-22T06:18:40;14.70;99.90
52509;DHT22;38420;53.150;6.370;2023-07-22T06:21:06;15.00;99.90
52509;DHT22;38420;53.150;6.370;2023-07-22T06:23:32;13.50;99.90
52509;DHT22;38420;53.150;6.370;2023-07-22T06:25:57;14.00;99.90
52509;DHT22;38420;53.150;6.370;2023-07-22T06:28:23;14.10;99.90
52509;DHT22;38420;53.150;6.370;2023-07-22T06:30:48;15.40;99.90
52509;DHT22;38420;53.150;6.370;2023-07-22T06:33:14;15.10;99.90
52509;DHT22;38420;53.150;6.370;2023-07-22T06:35:40;13.90;99.90
52509;DHT22;38420;53.150;6.370;2023-07-22T06:38:05;14.20;99.90
52509;DHT22;38420;53.150;6.370;2023-07-22T06:40:31;14.10;99.90
52509;DHT22;38420;53.150;6.370;2023-07-22T06:42:56;14.30;99.90
52509;DHT22;38420;53.150;6.370;2023-07-22T06:45:22;16.00;99.90
52509;DHT22;38420;53.150;6.370;2023-07-22T06:47:48;16.10;99.90
52509;DHT22;38420;53.150;6.370;2023-07-22T06:50:13;16.10;99.90
52509;DHT22;38420;53.150;6.370;2023-07-22T06:52:39;15.30;99.90
52509;DHT22;38420;53.150;6.370;2023-07-22T06:55:05;14.90;99.90
52509;DHT22;38420;53.150;6.370;2023-07-22T06:57:32;16.30;99.90
52509;DHT22;38420;53.150;6.370;2023-07-22T06:59:58;15.00;99.90
52509;DHT22;38420;53.150;6.370;2023-07-22T07:02:24;15.10;99.90
52509;DHT22;38420;53.150;6.370;2023-07-22T07:04:50;15.00;99.90
52509;DHT22;38420;53.150;6.370;2023-07-22T07:07:16;15.00;99.90
52509;DHT22;38420;53.150;6.370;2023-07-22T07:09:41;16.30;99.90
52509;DHT22;38420;53.150;6.370;2023-07-22T07:12:07;16.10;99.90
52509;DHT22;38420;53.150;6.370;2023-07-22T07:14:34;15.20;99.90
52509;DHT22;38420;53.150;6.370;2023-07-22T07:17:00;16.50;99.90
52509;DHT22;38420;53.150;6.370;2023-07-22T07:19:26;15.10;99.90
52509;DHT22;38420;53.150;6.370;2023-07-22T07:21:52;15.20;99.90
52509;DHT22;38420;53.150;6.370;2023-07-22T07:24:18;16.50;99.90
52509;DHT22;38420;53.150;6.370;2023-07-22T07:26:43;15.30;99.90
52509;DHT22;38420;53.150;6.370;2023-07-22T07:29:09;15.70;99.90
52509;DHT22;38420;53.150;6.370;2023-07-22T07:31:37;16.50;99.90
52509;DHT22;38420;53.150;6.370;2023-07-22T07:34:02;15.90;99.90
52509;DHT22;38420;53.150;6.370;2023-07-22T07:36:28;15.30;99.90
52509;DHT22;38420;53.150;6.370;2023-07-22T07:38:53;15.40;99.90
52509;DHT22;38420;53.150;6.370;2023-07-22T07:41:19;16.80;99.90
52509;DHT22;38420;53.150;6.370;2023-07-22T07:43:45;16.50;99.90
52509;DHT22;38420;53.150;6.370;2023-07-22T07:46:14;15.70;99.90
52509;DHT22;38420;53.150;6.370;2023-07-22T07:48:40;16.00;99.90
52509;DHT22;38420;53.150;6.370;2023-07-22T07:51:06;17.10;99.90
52509;DHT22;38420;53.150;6.370;2023-07-22T07:53:31;17.30;99.90
52509;DHT22;38420;53.150;6.370;2023-07-22T07:55:57;17.30;99.90
52509;DHT22;38420;53.150;6.370;2023-07-22T07:58:23;16.70;99.90
52509;DHT22;38420;53.150;6.370;2023-07-22T08:00:48;16.90;99.90
52509;DHT22;38420;53.150;6.370;2023-07-22T08:03:14;18.10;99.90
52509;DHT22;38420;53.150;6.370;2023-07-22T08:05:39;17.80;99.90
52509;DHT22;38420;53.150;6.370;2023-07-22T08:08:05;17.20;99.90
52509;DHT22;38420;53.150;6.370;2023-07-22T08:10:31;17.80;99.90
52509;DHT22;38420;53.150;6.370;2023-07-22T08:12:56;17.60;99.90
52509;DHT22;38420;53.150;6.370;2023-07-22T08:15:22;17.10;99.90
52509;DHT22;38420;53.150;6.370;2023-07-22T08:17:47;16.90;99.90
52509;DHT22;38420;53.150;6.370;2023-07-22T08:20:13;17.10;99.90
52509;DHT22;38420;53.150;6.370;2023-07-22T08:22:39;17.40;99.90
52509;DHT22;38420;53.150;6.370;2023-07-22T08:25:05;17.40;99.90
52509;DHT22;38420;53.150;6.370;2023-07-22T08:27:30;17.90;99.90
52509;DHT22;38420;53.150;6.370;2023-07-22T08:29:56;17.50;99.90
52509;DHT22;38420;53.150;6.370;2023-07-22T08:32:21;17.90;99.90
52509;DHT22;38420;53.150;6.370;2023-07-22T08:34:47;18.60;99.90
52509;DHT22;38420;53.150;6.370;2023-07-22T08:37:13;18.20;99.90
52509;DHT22;38420;53.150;6.370;2023-07-22T08:39:38;18.60;99.90
52509;DHT22;38420;53.150;6.370;2023-07-22T08:42:04;18.50;99.90
52509;DHT22;38420;53.150;6.370;2023-07-22T08:44:32;18.20;99.90
52509;DHT22;38420;53.150;6.370;2023-07-22T08:47:02;18.30;99.90
52509;DHT22;38420;53.150;6.370;2023-07-22T08:49:30;18.50;99.90
52509;DHT22;38420;53.150;6.370;2023-07-22T08:51:56;18.60;99.90
52509;DHT22;38420;53.150;6.370;2023-07-22T08:54:23;18.80;99.90
52509;DHT22;38420;53.150;6.370;2023-07-22T08:56:49;18.50;99.90
52509;DHT22;38420;53.150;6.370;2023-07-22T08:59:17;18.70;99.90
52509;DHT22;38420;53.150;6.370;2023-07-22T09:01:44;18.30;99.90
52509;DHT22;38420;53.150;6.370;2023-07-22T09:04:10;18.50;99.90
52509;DHT22;38420;53.150;6.370;2023-07-22T09:06:36;18.20;99.90
52509;DHT22;38420;53.150;6.370;2023-07-22T09:09:03;18.20;99.90
52509;DHT22;38420;53.150;6.370;2023-07-22T09:11:33;17.80;99.90
52509;DHT22;38420;53.150;6.370;2023-07-22T09:14:00;17.90;99.90
52509;DHT22;38420;53.150;6.370;2023-07-22T09:16:27;18.10;99.90
52509;DHT22;38420;53.150;6.370;2023-07-22T09:19:00;17.80;99.90
52509;DHT22;38420;53.150;6.370;2023-07-22T09:21:26;17.20;99.90
52509;DHT22;38420;53.150;6.370;2023-07-22T09:23:53;16.30;99.90
52509;DHT22;38420;53.150;6.370;2023-07-22T09:26:19;16.90;99.90
52509;DHT22;38420;53.150;6.370;2023-07-22T09:31:17;16.10;99.90
52509;DHT22;38420;53.150;6.370;2023-07-22T09:33:42;16.30;99.90
52509;DHT22;38420;53.150;6.370;2023-07-22T09:36:10;16.10;99.90
52509;DHT22;38420;53.150;6.370;2023-07-22T09:38:36;15.20;99.90
52509;DHT22;38420;53.150;6.370;2023-07-22T09:41:02;15.30;99.90
52509;DHT22;38420;53.150;6.370;2023-07-22T09:43:29;15.30;99.90
52509;DHT22;38420;53.150;6.370;2023-07-22T09:45:55;15.60;99.90
52509;DHT22;38420;53.150;6.370;2023-07-22T09:48:24;17.10;99.90
52509;DHT22;38420;53.150;6.370;2023-07-22T09:50:57;17.00;99.90
52509;DHT22;38420;53.150;6.370;2023-07-22T09:53:23;15.50;99.90
52509;DHT22;38420;53.150;6.370;2023-07-22T09:55:52;16.50;99.90
52509;DHT22;38420;53.150;6.370;2023-07-22T09:58:18;15.70;99.90
52509;DHT22;38420;53.150;6.370;2023-07-22T10:00:47;15.60;99.90
52509;DHT22;38420;53.150;6.370;2023-07-22T10:03:15;15.90;99.90
52509;DHT22;38420;53.150;6.370;2023-07-22T10:05:42;15.90;99.90
52509;DHT22;38420;53.150;6.370;2023-07-22T10:08:08;15.90;99.90
52509;DHT22;38420;53.150;6.370;2023-07-22T10:10:37;17.10;99.90
52509;DHT22;38420;53.150;6.370;2023-07-22T10:13:04;16.30;99.90
52509;DHT22;38420;53.150;6.370;2023-07-22T10:15:31;15.90;99.90
52509;DHT22;38420;53.150;6.370;2023-07-22T10:18:00;15.70;99.90
52509;DHT22;38420;53.150;6.370;2023-07-22T10:20:26;15.70;99.90
52509;DHT22;38420;53.150;6.370;2023-07-22T10:22:52;16.60;99.90
52509;DHT22;38420;53.150;6.370;2023-07-22T10:25:19;16.40;99.90
52509;DHT22;38420;53.150;6.370;2023-07-22T10:27:46;16.20;99.90
52509;DHT22;38420;53.150;6.370;2023-07-22T10:30:13;16.80;99.90
52509;DHT22;38420;53.150;6.370;2023-07-22T10:32:41;15.60;99.90
52509;DHT22;38420;53.150;6.370;2023-07-22T10:35:12;15.70;99.90
52509;DHT22;38420;53.150;6.370;2023-07-22T10:37:45;16.80;99.90
52509;DHT22;38420;53.150;6.370;2023-07-22T10:42:57;16.50;99.90
52509;DHT22;38420;53.150;6.370;2023-07-22T10:45:26;15.80;99.90
52509;DHT22;38420;53.150;6.370;2023-07-22T10:48:11;15.90;99.90
52509;DHT22;38420;53.150;6.370;2023-07-22T10:50:45;15.50;99.90
52509;DHT22;38420;53.150;6.370;2023-07-22T10:56:06;15.50;99.90
52509;DHT22;38420;53.150;6.370;2023-07-22T11:04:28;15.40;99.90
52509;DHT22;38420;53.150;6.370;2023-07-22T11:06:59;15.50;99.90
52509;DHT22;38420;53.150;6.370;2023-07-22T11:12:17;16.20;99.90
52509;DHT22;38420;53.150;6.370;2023-07-22T11:14:51;16.70;99.90
52509;DHT22;38420;53.150;6.370;2023-07-22T11:17:21;16.70;99.90
52509;DHT22;38420;53.150;6.370;2023-07-22T11:19:52;15.60;99.90
52509;DHT22;38420;53.150;6.370;2023-07-22T11:22:18;16.60;99.90
52509;DHT22;38420;53.150;6.370;2023-07-22T11:24:43;16.70;99.90
52509;DHT22;38420;53.150;6.370;2023-07-22T11:27:09;16.20;99.90
52509;DHT22;38420;53.150;6.370;2023-07-22T11:29:35;16.40;99.90
52509;DHT22;38420;53.150;6.370;2023-07-22T11:32:02;16.40;99.90
52509;DHT22;38420;53.150;6.370;2023-07-22T11:34:27;15.90;99.90
52509;DHT22;38420;53.150;6.370;2023-07-22T11:36:54;15.10;99.90
52509;DHT22;38420;53.150;6.370;2023-07-22T11:39:29;15.80;99.90
52509;DHT22;38420;53.150;6.370;2023-07-22T11:42:00;15.00;99.90
52509;DHT22;38420;53.150;6.370;2023-07-22T11:44:27;16.60;99.90
52509;DHT22;38420;53.150;6.370;2023-07-22T11:47:06;16.40;99.90
52509;DHT22;38420;53.150;6.370;2023-07-22T11:49:37;16.60;99.90
52509;DHT22;38420;53.150;6.370;2023-07-22T11:52:05;15.10;99.90
52509;DHT22;38420;53.150;6.370;2023-07-22T11:54:35;16.70;99.90
52509;DHT22;38420;53.150;6.370;2023-07-22T11:57:13;16.40;99.90
52509;DHT22;38420;53.150;6.370;2023-07-22T11:59:44;16.80;99.90
52509;DHT22;38420;53.150;6.370;2023-07-22T12:02:18;14.90;99.90
52509;DHT22;38420;53.150;6.370;2023-07-22T12:04:51;15.30;99.90
52509;DHT22;38420;53.150;6.370;2023-07-22T12:07:33;17.10;99.90
52509;DHT22;38420;53.150;6.370;2023-07-22T12:10:01;16.80;99.90
52509;DHT22;38420;53.150;6.370;2023-07-22T12:12:42;15.60;99.90
52509;DHT22;38420;53.150;6.370;2023-07-22T12:15:10;16.70;99.90
52509;DHT22;38420;53.150;6.370;2023-07-22T12:18:06;17.00;99.90
52509;DHT22;38420;53.150;6.370;2023-07-22T12:20:34;15.40;99.90
52509;DHT22;38420;53.150;6.370;2023-07-22T12:23:01;17.10;99.90
52509;DHT22;38420;53.150;6.370;2023-07-22T12:25:27;15.20;99.90
52509;DHT22;38420;53.150;6.370;2023-07-22T12:27:52;15.10;99.90
52509;DHT22;38420;53.150;6.370;2023-07-22T12:30:18;16.70;99.90
52509;DHT22;38420;53.150;6.370;2023-07-22T12:32:45;17.00;99.90
52509;DHT22;38420;53.150;6.370;2023-07-22T12:35:10;15.20;99.90
52509;DHT22;38420;53.150;6.370;2023-07-22T12:37:36;15.00;99.90
52509;DHT22;38420;53.150;6.370;2023-07-22T12:40:03;14.90;99.90
52509;DHT22;38420;53.150;6.370;2023-07-22T12:42:34;16.90;99.90
52509;DHT22;38420;53.150;6.370;2023-07-22T12:45:00;15.70;99.90
52509;DHT22;38420;53.150;6.370;2023-07-22T12:47:26;15.40;99.90
52509;DHT22;38420;53.150;6.370;2023-07-22T12:49:51;16.80;99.90
52509;DHT22;38420;53.150;6.370;2023-07-22T12:52:17;16.40;99.90
52509;DHT22;38420;53.150;6.370;2023-07-22T12:54:42;15.50;99.90
52509;DHT22;38420;53.150;6.370;2023-07-22T12:57:08;15.70;99.90
52509;DHT22;38420;53.150;6.370;2023-07-22T12:59:34;15.90;99.90
52509;DHT22;38420;53.150;6.370;2023-07-22T13:01:59;17.50;99.90
52509;DHT22;38420;53.150;6.370;2023-07-22T13:04:25;16.40;99.90
52509;DHT22;38420;53.150;6.370;2023-07-22T13:06:51;17.00;99.90
52509;DHT22;38420;53.150;6.370;2023-07-22T13:09:17;17.00;99.90
52509;DHT22;38420;53.150;6.370;2023-07-22T13:11:43;17.80;99.90
52509;DHT22;38420;53.150;6.370;2023-07-22T13:14:09;16.20;99.90
52509;DHT22;38420;53.150;6.370;2023-07-22T13:16:35;16.20;99.90
52509;DHT22;38420;53.150;6.370;2023-07-22T13:19:00;18.20;99.90
52509;DHT22;38420;53.150;6.370;2023-07-22T13:21:28;18.20;99.90
52509;DHT22;38420;53.150;6.370;2023-07-22T13:23:54;18.20;99.90
52509;DHT22;38420;53.150;6.370;2023-07-22T13:26:20;18.10;99.90
52509;DHT22;38420;53.150;6.370;2023-07-22T13:28:45;17.20;99.90
52509;DHT22;38420;53.150;6.370;2023-07-22T13:31:11;16.50;99.90
52509;DHT22;38420;53.150;6.370;2023-07-22T13:33:37;17.00;99.90
52509;DHT22;38420;53.150;6.370;2023-07-22T13:36:03;18.00;99.90
52509;DHT22;38420;53.150;6.370;2023-07-22T13:38:28;17.90;99.90
52509;DHT22;38420;53.150;6.370;2023-07-22T13:40:54;17.70;99.90
52509;DHT22;38420;53.150;6.370;2023-07-22T13:43:20;16.40;99.90
52509;DHT22;38420;53.150;6.370;2023-07-22T13:45:45;17.30;99.90
52509;DHT22;38420;53.150;6.370;2023-07-22T13:48:11;16.50;99.90
52509;DHT22;38420;53.150;6.370;2023-07-22T13:50:37;16.70;99.90
52509;DHT22;38420;53.150;6.370;2023-07-22T13:53:03;16.50;99.90
52509;DHT22;38420;53.150;6.370;2023-07-22T13:55:29;18.30;99.90
52509;DHT22;38420;53.150;6.370;2023-07-22T13:57:54;16.60;99.90
52509;DHT22;38420;53.150;6.370;2023-07-22T14:00:20;16.80;99.90
52509;DHT22;38420;53.150;6.370;2023-07-22T14:02:46;16.70;99.90
52509;DHT22;38420;53.150;6.370;2023-07-22T14:05:11;16.70;99.90
52509;DHT22;38420;53.150;6.370;2023-07-22T14:07:38;18.30;99.90
52509;DHT22;38420;53.150;6.370;2023-07-22T14:10:05;16.80;99.90
52509;DHT22;38420;53.150;6.370;2023-07-22T14:12:31;18.30;99.90
52509;DHT22;38420;53.150;6.370;2023-07-22T14:14:56;16.70;99.90
52509;DHT22;38420;53.150;6.370;2023-07-22T14:17:22;17.10;99.90
52509;DHT22;38420;53.150;6.370;2023-07-22T14:19:48;18.30;99.90
52509;DHT22;38420;53.150;6.370;2023-07-22T14:22:13;17.90;99.90
52509;DHT22;38420;53.150;6.370;2023-07-22T14:24:40;16.80;99.90
52509;DHT22;38420;53.150;6.370;2023-07-22T14:27:06;18.10;99.90
52509;DHT22;38420;53.150;6.370;2023-07-22T14:29:31;17.60;99.90
52509;DHT22;38420;53.150;6.370;2023-07-22T14:31:57;18.10;99.90
52509;DHT22;38420;53.150;6.370;2023-07-22T14:34:23;17.40;99.90
52509;DHT22;38420;53.150;6.370;2023-07-22T14:36:49;17.30;99.90
52509;DHT22;38420;53.150;6.370;2023-07-22T14:39:15;17.50;99.90
52509;DHT22;38420;53.150;6.370;2023-07-22T14:41:41;17.70;99.90
52509;DHT22;38420;53.150;6.370;2023-07-22T14:44:10;17.70;99.90
52509;DHT22;38420;53.150;6.370;2023-07-22T14:46:36;17.70;99.90
52509;DHT22;38420;53.150;6.370;2023-07-22T14:49:03;18.00;99.90
52509;DHT22;38420;53.150;6.370;2023-07-22T14:51:29;18.00;99.90
52509;DHT22;38420;53.150;6.370;2023-07-22T14:53:54;18.10;99.90
52509;DHT22;38420;53.150;6.370;2023-07-22T14:56:20;17.80;99.90
52509;DHT22;38420;53.150;6.370;2023-07-22T14:58:46;18.00;99.90
52509;DHT22;38420;53.150;6.370;2023-07-22T15:01:11;18.00;99.90
52509;DHT22;38420;53.150;6.370;2023-07-22T15:03:38;18.30;99.90
52509;DHT22;38420;53.150;6.370;2023-07-22T15:06:04;18.30;99.90
52509;DHT22;38420;53.150;6.370;2023-07-22T15:08:30;18.30;99.90
52509;DHT22;38420;53.150;6.370;2023-07-22T15:10:56;18.00;99.90
52509;DHT22;38420;53.150;6.370;2023-07-22T15:13:22;18.30;99.90
52509;DHT22;38420;53.150;6.370;2023-07-22T15:15:47;18.30;99.90
52509;DHT22;38420;53.150;6.370;2023-07-22T15:18:13;18.30;99.90
52509;DHT22;38420;53.150;6.370;2023-07-22T15:20:39;18.20;99.90
52509;DHT22;38420;53.150;6.370;2023-07-22T15:23:04;17.90;99.90
52509;DHT22;38420;53.150;6.370;2023-07-22T15:25:30;17.70;99.90
52509;DHT22;38420;53.150;6.370;2023-07-22T15:27:55;17.70;99.90
52509;DHT22;38420;53.150;6.370;2023-07-22T15:30:21;18.10;99.90
52509;DHT22;38420;53.150;6.370;2023-07-22T15:32:47;17.60;99.90
52509;DHT22;38420;53.150;6.370;2023-07-22T15:35:12;17.80;99.90
52509;DHT22;38420;53.150;6.370;2023-07-22T15:37:40;17.50;99.90
52509;DHT22;38420;53.150;6.370;2023-07-22T15:40:06;17.70;99.90
52509;DHT22;38420;53.150;6.370;2023-07-22T15:42:32;17.40;99.90